createdAt,value
2018-08-17T00:04:32.478Z,6.37
2018-08-17T00:09:37.259Z,5.20
2018-08-17T00:14:40.919Z,6.30
2018-08-17T00:19:46.578Z,5.87
2018-08-17T00:24:50.228Z,5.97
2018-08-17T00:29:53.786Z,8.37
2018-08-17T00:34:57.334Z,6.73
2018-08-17T00:40:00.970Z,8.73
2018-08-17T00:45:05.708Z,6.83
2018-08-17T00:50:09.377Z,6.93
2018-08-17T00:55:13.075Z,8.10
2018-08-17T01:00:16.718Z,6.03
2018-08-17T01:05:20.256Z,9.90
2018-08-17T01:10:23.831Z,6.30
2018-08-17T01:15:27.413Z,7.63
2018-08-17T01:20:31.001Z,5.50
2018-08-17T01:25:34.919Z,6.33
2018-08-17T01:30:38.650Z,7.53
2018-08-17T01:35:42.214Z,6.67
2018-08-17T01:40:45.734Z,7.50
2018-08-17T01:45:49.281Z,6.63
2018-08-17T01:50:52.826Z,6.77
2018-08-17T01:55:56.534Z,8.00
2018-08-17T02:01:00.123Z,8.80
2018-08-17T02:06:03.710Z,6.03
2018-08-17T02:11:07.321Z,6.13
2018-08-17T02:16:11.991Z,7.27
2018-08-17T02:21:15.540Z,7.60
2018-08-17T02:26:19.300Z,6.77
2018-08-17T02:31:22.862Z,5.33
2018-08-17T02:36:26.392Z,8.23
2018-08-17T02:41:29.989Z,8.03
2018-08-17T02:46:34.578Z,7.40
2018-08-17T02:51:38.141Z,5.63
2018-08-17T02:56:41.787Z,5.57
2018-08-17T03:01:45.407Z,6.10
2018-08-17T03:06:48.991Z,6.00
2018-08-17T03:11:52.595Z,5.37
2018-08-17T03:16:56.139Z,6.93
2018-08-17T03:21:59.708Z,6.43
2018-08-17T03:27:03.279Z,7.10
2018-08-17T03:32:06.878Z,6.17
2018-08-17T03:37:10.437Z,6.77
2018-08-17T03:42:13.995Z,6.03
2018-08-17T03:47:17.608Z,5.87
2018-08-17T03:52:21.162Z,6.73
2018-08-17T03:57:24.903Z,8.00
2018-08-17T04:02:28.472Z,7.00
2018-08-17T04:07:32.055Z,8.50
2018-08-17T04:12:35.762Z,11.40
2018-08-17T04:17:40.031Z,12.17
2018-08-17T04:22:43.606Z,15.07
2018-08-17T04:27:47.334Z,12.37
2018-08-17T04:32:50.889Z,9.97
2018-08-17T04:37:54.565Z,14.47
2018-08-17T04:42:58.178Z,18.80
2018-08-17T04:48:02.941Z,20.83
2018-08-17T04:53:06.594Z,12.33
2018-08-17T04:58:10.446Z,15.30
2018-08-17T05:03:14.010Z,13.70
2018-08-17T05:08:17.651Z,17.10
2018-08-17T05:13:22.982Z,17.13
2018-08-17T05:18:27.421Z,17.83
2018-08-17T05:23:31.058Z,21.00
2018-08-17T05:28:34.626Z,23.40
2018-08-17T05:33:38.262Z,18.17
2018-08-17T05:38:41.816Z,25.17
2018-08-17T05:43:45.757Z,24.40
2018-08-17T05:48:49.298Z,27.33
2018-08-17T05:53:53.020Z,27.00
2018-08-17T05:58:56.767Z,28.60
2018-08-17T06:04:01.344Z,31.03
2018-08-17T06:09:09.137Z,26.00
2018-08-17T06:14:12.700Z,27.03
2018-08-17T06:19:16.600Z,28.40
2018-08-17T06:24:20.142Z,26.60
2018-08-17T06:29:23.772Z,26.37
2018-08-17T06:34:27.343Z,31.40
2018-08-17T06:39:31.734Z,34.10
2018-08-17T06:44:36.148Z,27.07
2018-08-17T06:49:39.822Z,30.17
2018-08-17T06:54:43.458Z,28.13
2018-08-17T06:59:48.546Z,24.60
2018-08-17T07:04:54.196Z,26.40
2018-08-17T07:09:57.734Z,23.77
2018-08-17T07:15:06.821Z,26.53
2018-08-17T07:20:12.906Z,24.30
2018-08-17T07:25:16.598Z,22.13
2018-08-17T07:30:20.246Z,20.53
2018-08-17T07:35:23.808Z,19.57
2018-08-17T07:40:27.441Z,16.00
2018-08-17T07:45:31.217Z,16.63
2018-08-17T07:50:38.135Z,21.43
2018-08-17T07:55:41.748Z,18.20
2018-08-17T08:00:45.460Z,16.90
2018-08-17T08:05:50.214Z,17.43
2018-08-17T08:10:53.908Z,18.73
2018-08-17T08:15:57.486Z,23.33
2018-08-17T08:21:02.005Z,19.67
2018-08-17T08:26:07.684Z,19.13
2018-08-17T08:31:11.310Z,23.10
2018-08-17T08:36:14.945Z,20.33
2018-08-17T08:41:18.645Z,18.27
2018-08-17T08:46:28.018Z,19.20
2018-08-17T08:51:31.698Z,18.67
2018-08-17T08:56:35.543Z,16.33
2018-08-17T09:01:39.252Z,17.07
2018-08-17T09:06:42.931Z,17.30
2018-08-17T09:11:46.687Z,15.80
2018-08-17T09:16:50.227Z,14.97
2018-08-17T09:21:53.895Z,14.30
2018-08-17T09:26:57.624Z,12.47
2018-08-17T09:32:01.313Z,13.27
2018-08-17T09:37:05.858Z,12.13
2018-08-17T09:42:09.593Z,13.50
2018-08-17T09:47:13.086Z,13.63
2018-08-17T09:52:16.303Z,13.13
2018-08-17T09:57:19.869Z,12.53
2018-08-17T10:02:25.387Z,12.87
2018-08-17T10:07:34.236Z,13.57
2018-08-17T10:12:37.800Z,13.47
2018-08-17T10:17:43.879Z,10.97
2018-08-17T10:22:47.871Z,13.60
2018-08-17T10:27:52.675Z,11.47
2018-08-17T10:33:00.440Z,9.23
2018-08-17T10:38:06.631Z,11.43
2018-08-17T10:43:10.211Z,12.33
2018-08-17T10:48:13.905Z,10.23
2018-08-17T10:53:20.798Z,10.90
2018-08-17T10:58:24.398Z,12.73
2018-08-17T11:03:28.138Z,10.37
2018-08-17T11:08:31.674Z,8.33
2018-08-17T11:13:35.316Z,10.63
2018-08-17T11:18:38.870Z,8.60
2018-08-17T11:23:42.440Z,8.23
2018-08-17T11:28:46.175Z,7.87
2018-08-17T11:33:49.708Z,8.73
2018-08-17T11:38:53.330Z,10.93
2018-08-17T11:49:22.766Z,7.03
2018-08-17T11:54:26.297Z,7.67
2018-08-17T11:59:31.009Z,7.70
2018-08-17T12:04:34.647Z,7.53
2018-08-17T12:09:39.336Z,6.43
2018-08-17T12:14:43.983Z,6.63
2018-08-17T12:19:47.638Z,7.27
2018-08-17T12:24:51.328Z,7.20
2018-08-17T12:29:54.849Z,9.47
2018-08-17T12:34:58.406Z,7.17
2018-08-17T12:40:02.031Z,6.57
2018-08-17T12:45:10.899Z,6.70
2018-08-17T12:50:14.632Z,13.70
2018-08-17T12:55:19.290Z,9.73
2018-08-17T13:00:24.511Z,4.70
2018-08-17T13:05:28.219Z,6.20
2018-08-17T13:10:32.963Z,9.53
2018-08-17T13:15:38.146Z,5.83
2018-08-17T13:20:41.906Z,9.20
2018-08-17T13:25:45.563Z,7.63
2018-08-17T13:30:52.656Z,7.33
2018-08-17T13:35:56.241Z,6.77
2018-08-17T13:40:59.869Z,8.07
2018-08-17T13:46:03.562Z,7.17
2018-08-17T13:51:07.237Z,7.53
2018-08-17T13:56:10.882Z,9.00
2018-08-17T14:01:14.558Z,9.37
2018-08-17T14:06:18.160Z,13.30
2018-08-17T14:11:21.952Z,8.77
2018-08-17T14:16:25.576Z,11.10
2018-08-17T14:21:29.146Z,10.10
2018-08-17T14:26:32.708Z,11.47
2018-08-17T14:31:38.158Z,10.40
2018-08-17T14:36:41.854Z,10.83
2018-08-17T14:41:54.722Z,11.17
2018-08-17T14:47:00.889Z,11.63
2018-08-17T14:52:04.510Z,12.53
2018-08-17T14:57:08.102Z,26.13
2018-08-17T15:02:13.723Z,19.47
2018-08-17T15:07:18.566Z,18.10
2018-08-17T15:12:22.291Z,20.23
2018-08-17T15:17:25.850Z,21.73
2018-08-17T15:22:29.513Z,20.67
2018-08-17T15:27:33.142Z,22.13
2018-08-17T15:32:41.049Z,21.97
2018-08-17T15:37:45.732Z,20.73
2018-08-17T15:42:49.293Z,20.77
2018-08-17T15:47:56.065Z,19.77
2018-08-17T15:53:00.681Z,18.03
2018-08-17T15:58:04.507Z,15.27
2018-08-17T16:03:08.122Z,14.97
2018-08-17T16:08:11.942Z,15.27
2018-08-17T16:13:15.501Z,16.17
2018-08-17T16:18:19.131Z,16.07
2018-08-17T16:23:22.683Z,13.63
2018-08-17T16:28:26.259Z,14.43
2018-08-17T16:33:30.097Z,13.70
2018-08-17T16:38:37.223Z,14.13
2018-08-17T16:43:46.877Z,14.67
2018-08-17T16:48:50.461Z,15.17
2018-08-17T16:53:54.222Z,14.50
2018-08-17T16:59:02.484Z,15.27
2018-08-17T17:04:06.119Z,15.50
2018-08-17T17:09:09.831Z,14.87
2018-08-17T17:14:13.439Z,14.30
2018-08-17T17:19:21.334Z,14.57
2018-08-17T17:24:28.181Z,16.40
2018-08-17T17:29:36.013Z,15.40
2018-08-17T17:34:49.943Z,14.57
2018-08-17T17:39:53.438Z,14.63
2018-08-17T17:44:57.167Z,14.63
2018-08-17T17:50:00.872Z,14.67
2018-08-17T17:55:04.558Z,14.87
2018-08-17T18:00:08.266Z,13.40
2018-08-17T18:05:13.094Z,22.33
2018-08-17T18:10:19.422Z,13.73
2018-08-17T18:15:25.024Z,17.80
2018-08-17T18:20:29.176Z,11.53
2018-08-17T18:25:33.003Z,9.47
2018-08-17T18:30:36.624Z,9.57
2018-08-17T18:35:41.441Z,9.33
2018-08-17T18:40:45.089Z,9.73
2018-08-17T18:45:50.408Z,9.10
2018-08-17T18:50:55.387Z,9.97
2018-08-17T18:55:59.166Z,8.67
2018-08-17T19:01:04.044Z,8.23
2018-08-17T19:06:07.924Z,7.27
2018-08-17T19:11:11.647Z,7.63
2018-08-17T19:16:17.263Z,6.80
2018-08-17T19:21:20.964Z,7.30
2018-08-17T19:26:24.783Z,7.43
2018-08-17T19:31:29.446Z,7.03
2018-08-17T19:36:33.120Z,7.40
2018-08-17T19:41:38.804Z,6.10
2018-08-17T19:46:45.214Z,6.50
2018-08-17T19:51:48.878Z,6.37
2018-08-17T19:56:54.270Z,6.20
2018-08-17T20:01:58.159Z,5.50
2018-08-17T20:07:01.770Z,5.20
2018-08-17T20:12:05.650Z,5.60
2018-08-17T20:17:09.247Z,7.03
2018-08-17T20:22:22.035Z,5.83
2018-08-17T20:27:25.621Z,5.17
2018-08-17T20:32:29.190Z,5.53
2018-08-17T20:37:32.838Z,5.63
2018-08-17T20:42:36.527Z,6.00
2018-08-17T20:47:42.020Z,5.73
2018-08-17T20:52:52.767Z,6.10
2018-08-17T20:57:57.350Z,6.30
2018-08-17T21:03:01.433Z,5.60
2018-08-17T21:08:05.030Z,6.43
2018-08-17T21:13:08.933Z,7.97
2018-08-17T21:18:12.626Z,6.30
2018-08-17T21:23:16.227Z,5.47
2018-08-17T21:28:20.694Z,6.00
2018-08-17T21:33:24.495Z,5.20
2018-08-17T21:38:28.678Z,6.10
2018-08-17T21:43:32.408Z,6.13
2018-08-17T21:48:40.088Z,6.83
2018-08-17T21:53:45.430Z,6.00
2018-08-17T21:58:49.191Z,9.83
2018-08-17T22:03:53.144Z,9.37
2018-08-17T22:08:57.036Z,6.00
2018-08-17T22:14:01.171Z,6.87
2018-08-17T22:19:04.871Z,7.07
2018-08-17T22:24:08.801Z,5.73
2018-08-17T22:29:12.498Z,5.67
2018-08-17T22:34:16.184Z,10.27
2018-08-17T22:39:19.791Z,8.60
2018-08-17T22:44:23.894Z,8.03
2018-08-17T22:49:28.127Z,8.70
2018-08-17T22:54:31.765Z,7.37
2018-08-17T22:59:36.378Z,8.40
2018-08-17T23:04:40.087Z,6.70
2018-08-17T23:09:43.701Z,9.03
2018-08-17T23:14:47.349Z,7.60
2018-08-17T23:19:50.867Z,8.47
2018-08-17T23:24:54.462Z,9.53
2018-08-17T23:29:59.108Z,7.60
2018-08-17T23:35:02.658Z,6.00
2018-08-17T23:40:07.154Z,7.40
2018-08-17T23:45:12.416Z,7.60
2018-08-17T23:50:17.526Z,8.83
2018-08-17T23:55:21.154Z,7.27
